Time;durP1;ratioP1;P1;durP2;ratioP2;P2;SDS_P1;SDS_P2;PMS_P1;PMS_P2;Temp;Humidity;BMP_temperature;BMP_pressure;BME280_temperature;BME280_humidity;BME280_pressure;Samples;Min_cycle;Max_cycle;Signal;HPM_P1;HPM_P2
2022/06/29 00:02:05;;;;;;;0.90;0.90;;;22.50;55.70;;;;;;5014490;28;20172;-69
2022/06/29 00:04:30;;;;;;;1.27;0.75;;;22.50;55.70;;;;;;5014166;28;20311;-68
2022/06/29 00:06:56;;;;;;;1.02;0.90;;;22.50;55.70;;;;;;5013310;28;20234;-68
2022/06/29 00:09:21;;;;;;;1.65;1.00;;;22.50;55.70;;;;;;5014183;28;20655;-69
2022/06/29 00:11:47;;;;;;;1.02;0.80;;;22.50;55.70;;;;;;5013785;28;20663;-68
2022/06/29 00:14:12;;;;;;;0.88;0.60;;;22.50;55.80;;;;;;5013680;28;20168;-69
2022/06/29 00:16:38;;;;;;;1.13;0.85;;;22.50;55.80;;;;;;5014059;28;20183;-68
2022/06/29 00:19:03;;;;;;;0.82;0.82;;;22.50;55.80;;;;;;5013961;28;20172;-68
2022/06/29 00:21:29;;;;;;;1.52;0.80;;;22.50;55.80;;;;;;5013355;28;20311;-68
2022/06/29 00:23:55;;;;;;;0.75;0.60;;;22.50;55.90;;;;;;5013803;28;20359;-68
2022/06/29 00:26:20;;;;;;;1.70;0.60;;;22.50;55.80;;;;;;5013249;28;20533;-68
2022/06/29 00:28:46;;;;;;;0.82;0.77;;;22.50;55.80;;;;;;5013536;28;20538;-67
2022/06/29 00:31:11;;;;;;;1.85;0.70;;;22.50;55.90;;;;;;5013670;28;20713;-68
2022/06/29 00:33:37;;;;;;;0.65;0.60;;;22.50;55.90;;;;;;5012885;28;20188;-67
2022/06/29 00:36:02;;;;;;;0.80;0.80;;;22.50;55.90;;;;;;5013442;28;20176;-68
2022/06/29 00:38:28;;;;;;;0.88;0.75;;;22.50;55.90;;;;;;5013795;28;20172;-68
2022/06/29 00:40:53;;;;;;;1.35;0.80;;;22.50;55.90;;;;;;5012442;28;20172;-69
2022/06/29 00:43:19;;;;;;;0.85;0.73;;;22.50;55.90;;;;;;5013526;28;20176;-69
2022/06/29 00:45:44;;;;;;;0.98;0.75;;;22.50;55.90;;;;;;5013667;28;20533;-68
2022/06/29 00:48:12;;;;;;;0.75;0.63;;;22.50;55.90;;;;;;5012543;28;20643;-69
2022/06/29 00:50:38;;;;;;;1.00;0.90;;;22.50;55.90;;;;;;5013348;28;20247;-69
2022/06/29 00:53:04;;;;;;;0.65;0.60;;;22.50;56.00;;;;;;5012938;28;20196;-69
2022/06/29 00:55:32;;;;;;;0.95;0.80;;;22.50;56.00;;;;;;5012693;28;20211;-71
2022/06/29 00:57:59;;;;;;;0.60;0.60;;;22.40;56.00;;;;;;5013091;28;20204;-68
2022/06/29 01:00:24;;;;;;;0.60;0.60;;;22.50;56.00;;;;;;4996189;28;20184;-68
2022/06/29 01:02:50;;;;;;;1.70;0.70;;;22.40;56.00;;;;;;5012077;28;20303;-67
2022/06/29 01:05:15;;;;;;;0.80;0.80;;;22.40;56.00;;;;;;5013221;28;20178;-68
2022/06/29 01:07:41;;;;;;;0.70;0.70;;;22.40;56.60;;;;;;5012846;28;20190;-68
2022/06/29 01:10:07;;;;;;;0.75;0.73;;;22.40;56.00;;;;;;4994794;28;20599;-67
2022/06/29 01:12:32;;;;;;;1.80;0.80;;;22.40;56.00;;;;;;5013272;28;20226;-69
2022/06/29 01:14:58;;;;;;;1.25;0.80;;;22.40;56.00;;;;;;5013016;28;20215;-68
2022/06/29 01:17:23;;;;;;;1.30;0.80;;;22.40;56.00;;;;;;5012452;28;20179;-68
2022/06/29 01:19:49;;;;;;;0.90;0.90;;;22.40;56.00;;;;;;5012861;28;20180;-67
2022/06/29 01:22:15;;;;;;;1.70;0.60;;;22.40;56.00;;;;;;5012925;28;20547;-69
2022/06/29 01:24:41;;;;;;;1.20;0.82;;;22.40;56.10;;;;;;5012114;28;20187;-69
2022/06/29 01:27:07;;;;;;;0.93;0.70;;;22.40;56.10;;;;;;5012803;28;20168;-68
2022/06/29 01:29:33;;;;;;;0.90;0.90;;;22.40;56.10;;;;;;5012211;28;20218;-68
2022/06/29 01:31:58;;;;;;;0.50;0.50;;;22.40;56.10;;;;;;5012905;28;20643;-67
2022/06/29 01:34:24;;;;;;;0.93;0.70;;;22.40;56.10;;;;;;5013163;28;20172;-67
2022/06/29 01:36:50;;;;;;;1.75;0.60;;;22.40;56.20;;;;;;5011900;28;20168;-68
2022/06/29 01:39:15;;;;;;;1.08;0.98;;;22.40;56.10;;;;;;5012914;28;20635;-68
2022/06/29 01:41:41;;;;;;;0.70;0.70;;;22.40;56.10;;;;;;5012529;28;20187;-69
2022/06/29 01:44:07;;;;;;;1.17;0.73;;;22.40;56.20;;;;;;5012051;28;20173;-69
2022/06/29 01:46:32;;;;;;;0.60;0.60;;;22.30;56.20;;;;;;5012987;28;20267;-69
2022/06/29 01:48:58;;;;;;;0.68;0.68;;;22.40;56.20;;;;;;5012458;28;20272;-69
2022/06/29 01:51:23;;;;;;;1.27;0.73;;;22.30;56.20;;;;;;5012177;28;20303;-70
2022/06/29 01:53:49;;;;;;;0.95;0.63;;;22.40;56.30;;;;;;5012534;28;20183;-69
2022/06/29 01:56:14;;;;;;;0.70;0.70;;;22.30;56.20;;;;;;5012671;28;20184;-68
2022/06/29 01:58:40;;;;;;;1.60;0.80;;;22.30;56.20;;;;;;5011829;28;20765;-68
2022/06/29 02:01:05;;;;;;;1.20;0.90;;;22.30;56.20;;;;;;5012767;28;20210;-68
2022/06/29 02:03:31;;;;;;;0.60;0.60;;;22.30;56.30;;;;;;5012855;28;20690;-68
2022/06/29 02:06:00;;;;;;;0.77;0.77;;;22.30;56.30;;;;;;5014574;28;20176;-67
2022/06/29 02:08:25;;;;;;;1.15;0.80;;;22.30;56.20;;;;;;5016391;28;20172;-67
2022/06/29 02:10:51;;;;;;;1.10;0.70;;;22.40;56.30;;;;;;5016027;28;20224;-68
2022/06/29 02:13:16;;;;;;;0.90;0.90;;;22.30;56.30;;;;;;5015878;28;20175;-68
2022/06/29 02:15:42;;;;;;;0.73;0.70;;;22.30;56.20;;;;;;5016363;28;20260;-68
2022/06/29 02:18:07;;;;;;;0.75;0.75;;;22.30;56.30;;;;;;5016147;28;20288;-68
2022/06/29 02:20:33;;;;;;;1.00;0.90;;;22.30;56.40;;;;;;5015769;28;20653;-68
2022/06/29 02:22:58;;;;;;;1.08;0.75;;;22.30;56.40;;;;;;5015817;28;20165;-68
2022/06/29 02:25:24;;;;;;;0.90;0.80;;;22.30;56.40;;;;;;5016103;28;20220;-69
2022/06/29 02:27:49;;;;;;;0.93;0.90;;;22.30;56.40;;;;;;5014877;28;20246;-68
2022/06/29 02:30:15;;;;;;;1.30;0.90;;;22.30;56.40;;;;;;5015995;28;20703;-68
2022/06/29 02:35:26;;;;;;;1.13;0.80;;;22.30;56.40;;;;;;5016136;28;20191;-68
2022/06/29 02:37:51;;;;;;;0.98;0.90;;;22.30;56.40;;;;;;5015613;28;20168;-67
2022/06/29 02:40:16;;;;;;;0.77;0.77;;;22.30;56.40;;;;;;5014966;28;20639;-68
2022/06/29 02:42:42;;;;;;;0.90;0.90;;;22.30;56.50;;;;;;5015694;28;20173;-68
2022/06/29 02:45:08;;;;;;;0.93;0.80;;;22.20;56.50;;;;;;5015877;28;20188;-68
2022/06/29 02:47:33;;;;;;;0.93;0.82;;;22.20;56.50;;;;;;5015087;28;20176;-69
2022/06/29 02:49:59;;;;;;;0.68;0.68;;;22.20;56.50;;;;;;5015277;28;20202;-68
2022/06/29 02:52:24;;;;;;;0.70;0.70;;;22.20;56.50;;;;;;5015856;28;20658;-69
2022/06/29 02:54:50;;;;;;;0.82;0.80;;;22.20;56.50;;;;;;5014848;28;20275;-69
2022/06/29 02:57:15;;;;;;;0.80;0.80;;;22.20;56.60;;;;;;5015743;28;20178;-69
2022/06/29 02:59:41;;;;;;;0.80;0.80;;;22.20;56.50;;;;;;5015404;28;20175;-69
2022/06/29 03:02:06;;;;;;;1.27;0.90;;;22.20;56.50;;;;;;5014812;28;20177;-68
2022/06/29 03:04:34;;;;;;;0.75;0.75;;;22.20;56.50;;;;;;5015210;28;20625;-67
2022/06/29 03:07:00;;;;;;;1.00;0.90;;;22.20;56.50;;;;;;5015066;28;20682;-67
2022/06/29 03:09:25;;;;;;;0.93;0.85;;;22.20;56.50;;;;;;5014828;28;20271;-69
2022/06/29 03:11:51;;;;;;;0.82;0.80;;;22.20;56.60;;;;;;5015228;28;20169;-68
2022/06/29 03:14:16;;;;;;;1.08;0.90;;;22.20;56.60;;;;;;5015467;28;20194;-68
2022/06/29 03:16:42;;;;;;;1.52;0.90;;;22.20;56.70;;;;;;5013633;28;20176;-68
2022/06/29 03:19:08;;;;;;;1.02;0.90;;;22.20;56.60;;;;;;5015003;28;20646;-68
2022/06/29 03:21:33;;;;;;;0.80;0.80;;;22.20;56.70;;;;;;5015039;28;20172;-69
2022/06/29 03:23:59;;;;;;;0.80;0.80;;;22.20;56.70;;;;;;5014129;28;20632;-69
2022/06/29 03:26:24;;;;;;;0.85;0.77;;;22.20;56.70;;;;;;5015096;28;20264;-69
2022/06/29 03:28:52;;;;;;;1.30;1.10;;;22.20;56.70;;;;;;5014843;28;20302;-68
2022/06/29 03:31:19;;;;;;;0.77;0.77;;;22.20;56.70;;;;;;5014101;28;20220;-68
2022/06/29 03:33:45;;;;;;;0.80;0.80;;;22.20;56.70;;;;;;5014748;28;20254;-68
2022/06/29 03:36:11;;;;;;;1.10;1.00;;;22.20;56.80;;;;;;5014029;28;20208;-68
2022/06/29 03:38:36;;;;;;;0.77;0.77;;;22.20;56.70;;;;;;5014596;28;20542;-68
2022/06/29 03:41:02;;;;;;;1.15;0.90;;;22.10;56.70;;;;;;5015227;28;20180;-68
2022/06/29 03:43:28;;;;;;;0.75;0.75;;;22.10;56.70;;;;;;5014136;28;20207;-70
2022/06/29 03:45:53;;;;;;;0.88;0.88;;;22.10;56.80;;;;;;5014547;28;20543;-68
2022/06/29 03:48:19;;;;;;;0.70;0.70;;;22.10;56.80;;;;;;5014577;28;20179;-71
2022/06/29 03:50:44;;;;;;;1.17;0.90;;;22.10;56.80;;;;;;5013578;28;20242;-70
2022/06/29 03:53:10;;;;;;;0.77;0.77;;;22.10;56.80;;;;;;5014622;28;20545;-68
2022/06/29 03:55:35;;;;;;;0.88;0.80;;;22.10;56.80;;;;;;5014226;28;20609;-68
2022/06/29 03:58:01;;;;;;;1.40;1.00;;;22.20;56.90;;;;;;5013784;28;20654;-67
2022/06/29 04:00:27;;;;;;;1.23;0.75;;;22.10;56.80;;;;;;5014367;28;20172;-67
2022/06/29 04:02:52;;;;;;;0.85;0.85;;;22.10;56.80;;;;;;5014229;28;20177;-67
2022/06/29 04:05:18;;;;;;;0.98;0.98;;;22.10;56.80;;;;;;5013417;28;20319;-66
2022/06/29 04:07:43;;;;;;;0.80;0.80;;;22.10;56.70;;;;;;5013888;28;20180;-66
2022/06/29 04:10:09;;;;;;;1.30;1.10;;;22.10;56.80;;;;;;5014193;28;20267;-67
2022/06/29 04:12:35;;;;;;;0.73;0.73;;;22.10;56.70;;;;;;5013558;28;20180;-67
2022/06/29 04:15:01;;;;;;;1.20;1.10;;;22.10;56.70;;;;;;5013747;28;20181;-66
2022/06/29 04:17:27;;;;;;;1.08;0.80;;;22.20;56.80;;;;;;5014295;28;20180;-67
2022/06/29 04:19:52;;;;;;;1.13;1.02;;;22.20;56.70;;;;;;5013027;28;20169;-67
2022/06/29 04:22:19;;;;;;;0.80;0.80;;;22.20;56.70;;;;;;5014230;28;20188;-67
2022/06/29 04:24:44;;;;;;;1.02;0.80;;;22.20;56.60;;;;;;5013988;28;20180;-67
2022/06/29 04:27:10;;;;;;;1.65;0.95;;;22.20;56.50;;;;;;5013144;28;20173;-66
2022/06/29 04:29:35;;;;;;;1.30;1.20;;;22.20;56.60;;;;;;5013695;28;20231;-66
2022/06/29 04:32:02;;;;;;;1.00;0.90;;;22.20;56.60;;;;;;5013799;28;20176;-66
2022/06/29 04:34:27;;;;;;;0.90;0.90;;;22.20;56.60;;;;;;5012891;28;20169;-66
2022/06/29 04:36:53;;;;;;;2.15;1.15;;;22.20;56.60;;;;;;5013672;28;20173;-67
2022/06/29 04:39:18;;;;;;;0.88;0.70;;;22.20;56.60;;;;;;5013722;28;20247;-67
2022/06/29 04:41:44;;;;;;;1.38;1.13;;;22.20;56.60;;;;;;5012643;28;20640;-67
2022/06/29 04:44:09;;;;;;;1.30;0.90;;;22.20;56.60;;;;;;5013627;28;20172;-67
2022/06/29 04:46:35;;;;;;;1.00;1.00;;;22.20;56.60;;;;;;5012854;28;20184;-67
2022/06/29 04:49:01;;;;;;;0.95;0.85;;;22.20;56.60;;;;;;5013339;28;20183;-67
2022/06/29 04:51:28;;;;;;;1.30;1.17;;;22.20;56.60;;;;;;5013618;28;20234;-67
2022/06/29 04:53:54;;;;;;;0.90;0.90;;;22.20;56.50;;;;;;5012569;28;20215;-67
2022/06/29 04:56:20;;;;;;;0.98;0.90;;;22.20;56.60;;;;;;5013591;28;20208;-67
2022/06/29 04:58:45;;;;;;;1.15;1.08;;;22.20;56.50;;;;;;5013149;28;20208;-67
2022/06/29 05:01:11;;;;;;;0.98;0.98;;;22.20;56.60;;;;;;5012614;28;20176;-67
2022/06/29 05:03:36;;;;;;;0.90;0.90;;;22.20;56.50;;;;;;5012937;28;20216;-67
2022/06/29 05:06:02;;;;;;;1.05;0.93;;;22.30;56.60;;;;;;5013126;28;20699;-66
2022/06/29 05:08:27;;;;;;;1.23;0.93;;;22.20;56.50;;;;;;5012699;28;20175;-66
2022/06/29 05:10:53;;;;;;;1.15;1.10;;;22.30;56.60;;;;;;5012999;28;20568;-66
2022/06/29 05:13:18;;;;;;;1.23;1.08;;;22.20;56.50;;;;;;5013347;28;20172;-67
2022/06/29 05:15:44;;;;;;;1.13;1.00;;;22.20;56.50;;;;;;5012412;28;20172;-66
2022/06/29 05:18:09;;;;;;;0.80;0.80;;;22.30;56.60;;;;;;5012902;28;20246;-67
2022/06/29 05:20:35;;;;;;;1.55;1.23;;;22.20;56.50;;;;;;5013061;28;20184;-66
2022/06/29 05:23:00;;;;;;;1.08;1.00;;;22.20;56.50;;;;;;5012400;28;20176;-66
2022/06/29 05:25:26;;;;;;;0.90;0.90;;;22.20;56.50;;;;;;5013220;28;20184;-67
2022/06/29 05:27:51;;;;;;;0.93;0.93;;;22.30;56.50;;;;;;5012624;28;20199;-66
2022/06/29 05:30:17;;;;;;;1.10;1.10;;;22.30;56.50;;;;;;5012167;28;20266;-66
2022/06/29 05:32:43;;;;;;;1.35;1.27;;;22.20;56.50;;;;;;5012718;28;20182;-66
2022/06/29 05:35:09;;;;;;;1.17;1.15;;;22.20;56.50;;;;;;5013021;28;20188;-66
2022/06/29 05:37:34;;;;;;;0.98;0.95;;;22.30;56.50;;;;;;5012302;28;20168;-67
2022/06/29 05:40:00;;;;;;;1.35;1.25;;;22.30;56.50;;;;;;5014201;28;20179;-66
2022/06/29 05:42:25;;;;;;;1.10;1.10;;;22.30;56.50;;;;;;5017144;28;20176;-66
2022/06/29 05:44:51;;;;;;;1.58;1.00;;;22.30;56.40;;;;;;5016026;28;20583;-67
2022/06/29 05:47:16;;;;;;;0.95;0.95;;;22.30;56.40;;;;;;5016849;28;20635;-67
2022/06/29 05:49:42;;;;;;;1.05;1.02;;;22.30;56.50;;;;;;5016680;28;20555;-68
2022/06/29 05:52:08;;;;;;;1.13;1.10;;;22.30;56.50;;;;;;5016227;28;20678;-68
2022/06/29 05:54:33;;;;;;;1.20;1.10;;;22.30;56.40;;;;;;5016907;28;20203;-67
2022/06/29 05:56:59;;;;;;;1.42;1.10;;;22.30;56.40;;;;;;5015787;28;20179;-66
2022/06/29 05:59:24;;;;;;;1.10;1.10;;;22.30;56.40;;;;;;5016345;28;20173;-66
2022/06/29 06:01:50;;;;;;;1.00;1.00;;;22.30;56.40;;;;;;5016415;28;20283;-65
2022/06/29 06:04:15;;;;;;;1.30;1.20;;;22.30;56.40;;;;;;5015810;28;20315;-66
2022/06/29 06:06:41;;;;;;;1.15;1.15;;;22.30;56.40;;;;;;5016463;28;20631;-65
2022/06/29 06:09:06;;;;;;;1.48;1.20;;;22.40;56.40;;;;;;5016260;28;20176;-66
2022/06/29 06:11:32;;;;;;;0.88;0.88;;;22.30;56.40;;;;;;5015617;28;20212;-66
2022/06/29 06:13:57;;;;;;;1.02;0.98;;;22.30;56.40;;;;;;5016000;28;20242;-67
2022/06/29 06:16:23;;;;;;;1.38;1.27;;;22.30;56.30;;;;;;5016318;28;20172;-66
2022/06/29 06:18:48;;;;;;;1.02;1.00;;;22.40;56.40;;;;;;5015136;28;20173;-66
2022/06/29 06:21:15;;;;;;;1.20;1.13;;;22.40;56.40;;;;;;5016432;28;20180;-66
2022/06/29 06:23:40;;;;;;;1.00;1.00;;;22.40;56.30;;;;;;5016110;28;20176;-66
2022/06/29 06:26:06;;;;;;;1.58;1.10;;;22.40;56.30;;;;;;5015468;28;20180;-67
2022/06/29 06:28:31;;;;;;;1.23;1.10;;;22.40;56.30;;;;;;5016187;28;20689;-66
2022/06/29 06:30:57;;;;;;;1.10;1.00;;;22.40;56.20;;;;;;5015753;28;20204;-66
2022/06/29 06:33:22;;;;;;;1.10;1.10;;;22.40;56.10;;;;;;5015392;28;20172;-65
2022/06/29 06:35:48;;;;;;;1.70;1.17;;;22.40;56.10;;;;;;5015925;28;20180;-66
2022/06/29 06:38:14;;;;;;;0.98;0.98;;;22.40;56.10;;;;;;5016152;28;20176;-66
2022/06/29 06:43:24;;;;;;;1.60;1.20;;;22.40;56.10;;;;;;5015962;28;20182;-67
2022/06/29 06:45:49;;;;;;;1.63;1.40;;;22.50;56.20;;;;;;5015616;28;20267;-67
2022/06/29 06:48:15;;;;;;;1.48;1.10;;;22.40;56.20;;;;;;5015228;28;20180;-67
2022/06/29 06:50:40;;;;;;;2.25;1.10;;;22.50;56.10;;;;;;5014987;28;20223;-66
2022/06/29 06:53:06;;;;;;;1.02;0.93;;;22.50;56.10;;;;;;5014332;28;20203;-66
2022/06/29 06:55:31;;;;;;;3.65;1.25;;;22.40;56.20;;;;;;5015791;28;20654;-66
2022/06/29 06:57:57;;;;;;;1.17;1.13;;;22.40;56.20;;;;;;5015167;28;20691;-67
2022/06/29 07:00:22;;;;;;;1.52;1.02;;;22.50;56.20;;;;;;5014680;28;20187;-66
2022/06/29 07:02:48;;;;;;;1.10;1.10;;;22.50;56.20;;;;;;5015321;28;20242;-64
2022/06/29 07:05:13;;;;;;;1.77;1.17;;;22.50;56.30;;;;;;5015293;28;20231;-65
2022/06/29 07:07:39;;;;;;;1.60;1.38;;;22.50;56.30;;;;;;5014586;28;20172;-67
2022/06/29 07:10:05;;;;;;;2.70;1.10;;;22.50;56.40;;;;;;5015442;28;20845;-66
2022/06/29 07:12:31;;;;;;;2.15;1.40;;;22.50;56.40;;;;;;5015234;28;20647;-66
2022/06/29 07:14:56;;;;;;;3.03;1.52;;;22.60;56.30;;;;;;5014144;28;20231;-67
2022/06/29 07:17:22;;;;;;;3.05;1.50;;;22.50;56.30;;;;;;5015400;28;20181;-67
2022/06/29 07:19:47;;;;;;;2.97;1.70;;;22.60;56.40;;;;;;5015095;28;20175;-67
2022/06/29 07:22:13;;;;;;;4.18;1.40;;;22.60;56.40;;;;;;5014592;28;20204;-67
2022/06/29 07:24:38;;;;;;;3.92;1.70;;;22.60;56.40;;;;;;5015112;28;20176;-66
2022/06/29 07:27:04;;;;;;;4.82;1.70;;;22.60;56.40;;;;;;5015003;28;20184;-66
2022/06/29 07:29:30;;;;;;;2.22;1.30;;;22.60;56.40;;;;;;5014126;28;20260;-66
2022/06/29 07:31:55;;;;;;;2.25;1.20;;;22.60;56.40;;;;;;5014508;28;20651;-65
2022/06/29 07:34:21;;;;;;;4.30;1.65;;;22.60;57.00;;;;;;5015116;28;20177;-65
2022/06/29 07:36:46;;;;;;;1.70;1.25;;;22.70;56.40;;;;;;5014131;28;20187;-66
2022/06/29 07:39:12;;;;;;;2.60;1.50;;;22.70;56.40;;;;;;5014698;28;20177;-66
2022/06/29 07:41:37;;;;;;;4.07;1.42;;;22.70;56.30;;;;;;5014657;28;20611;-69
2022/06/29 07:44:04;;;;;;;1.77;1.10;;;22.80;56.30;;;;;;5013856;28;20183;-66
2022/06/29 07:46:29;;;;;;;2.20;1.40;;;22.70;56.20;;;;;;5015135;28;20199;-67
2022/06/29 07:48:55;;;;;;;4.18;1.50;;;22.80;56.30;;;;;;5014473;28;20177;-67
2022/06/29 07:51:20;;;;;;;1.42;1.10;;;22.80;56.30;;;;;;5014062;28;20212;-67
2022/06/29 07:53:46;;;;;;;2.25;1.27;;;22.80;56.30;;;;;;5014376;28;20205;-67
2022/06/29 07:56:11;;;;;;;6.80;1.48;;;22.80;56.30;;;;;;5014660;28;20168;-67
2022/06/29 07:58:37;;;;;;;2.22;1.50;;;22.90;56.30;;;;;;5013524;28;20559;-66
2022/06/29 08:01:03;;;;;;;2.85;1.10;;;22.90;56.30;;;;;;5014535;28;20546;-66
2022/06/29 08:03:31;;;;;;;1.73;1.30;;;22.90;56.40;;;;;;5013199;28;20212;-66
2022/06/29 08:05:57;;;;;;;3.67;1.40;;;22.90;56.40;;;;;;5014185;28;20177;-65
2022/06/29 08:08:23;;;;;;;1.55;1.30;;;22.90;56.30;;;;;;5014546;28;20263;-65
2022/06/29 08:10:48;;;;;;;1.88;1.20;;;22.90;56.30;;;;;;5013126;28;20351;-65
2022/06/29 08:13:14;;;;;;;4.22;1.40;;;23.00;56.40;;;;;;5014194;28;20184;-66
2022/06/29 08:15:41;;;;;;;2.05;1.30;;;23.00;56.40;;;;;;5014233;28;20180;-66
2022/06/29 08:18:07;;;;;;;1.85;1.17;;;23.00;56.40;;;;;;5013273;28;20199;-67
2022/06/29 08:20:32;;;;;;;2.28;1.50;;;23.00;56.30;;;;;;5014220;28;20181;-67
2022/06/29 08:22:58;;;;;;;2.38;1.67;;;23.00;56.30;;;;;;5013789;28;20270;-67
2022/06/29 08:25:24;;;;;;;4.00;1.50;;;23.10;56.30;;;;;;5013388;28;20192;-67
2022/06/29 08:27:52;;;;;;;2.80;1.40;;;23.00;56.40;;;;;;5013611;28;20582;-66
2022/06/29 08:30:17;;;;;;;2.40;1.50;;;23.10;56.40;;;;;;5013980;28;20262;-66
2022/06/29 08:32:44;;;;;;;1.55;1.25;;;23.10;56.30;;;;;;5013190;28;20177;-66
2022/06/29 08:35:10;;;;;;;4.38;1.10;;;23.20;56.30;;;;;;5013898;28;20173;-67
2022/06/29 08:37:39;;;;;;;3.40;1.40;;;23.20;56.30;;;;;;5013552;28;20701;-66
2022/06/29 08:40:08;;;;;;;2.97;1.35;;;23.20;56.20;;;;;;5013079;28;20169;-67
2022/06/29 08:42:35;;;;;;;2.55;1.23;;;23.20;56.20;;;;;;5013793;28;20259;-67
2022/06/29 08:45:01;;;;;;;2.33;1.10;;;23.20;56.30;;;;;;4996500;28;20263;-67
2022/06/29 08:47:26;;;;;;;4.25;1.55;;;23.10;56.30;;;;;;5012909;28;20284;-67
2022/06/29 08:49:52;;;;;;;4.40;1.88;;;23.10;56.30;;;;;;5013103;28;20581;-67
2022/06/29 08:52:17;;;;;;;3.33;1.60;;;23.20;56.30;;;;;;4996038;28;20695;-67
2022/06/29 08:54:44;;;;;;;1.30;1.00;;;23.10;56.30;;;;;;4994680;28;20173;-67
2022/06/29 08:57:09;;;;;;;2.95;1.17;;;23.10;56.30;;;;;;5013320;28;20177;-67
2022/06/29 08:59:35;;;;;;;2.47;1.20;;;23.20;56.30;;;;;;5013672;28;20173;-67
2022/06/29 09:02:01;;;;;;;2.78;1.25;;;23.20;56.30;;;;;;5012497;28;20206;-66
2022/06/29 09:04:26;;;;;;;1.98;1.48;;;23.20;56.20;;;;;;5013318;28;20232;-66
2022/06/29 09:06:53;;;;;;;3.35;1.25;;;23.30;56.20;;;;;;5012266;28;20195;-66
2022/06/29 09:09:18;;;;;;;3.63;1.50;;;23.30;56.20;;;;;;5013149;28;20185;-66
2022/06/29 09:11:44;;;;;;;2.85;1.50;;;23.30;56.50;;;;;;5012948;28;20670;-66
2022/06/29 09:14:20;;;;;;;1.65;1.40;;;23.40;56.20;;;;;;5011916;28;20673;-67
2022/06/29 09:16:49;;;;;;;2.70;1.20;;;23.40;56.10;;;;;;5013058;28;20180;-66
2022/06/29 09:19:17;;;;;;;4.25;1.52;;;23.40;56.20;;;;;;5013163;28;20176;-68
2022/06/29 09:21:50;;;;;;;2.38;1.35;;;23.40;56.30;;;;;;5012280;28;20259;-67
2022/06/29 09:24:19;;;;;;;1.60;1.50;;;23.40;56.30;;;;;;5013256;28;20198;-66
2022/06/29 09:26:52;;;;;;;1.58;1.48;;;23.40;56.30;;;;;;5012981;28;20187;-66
2022/06/29 09:29:22;;;;;;;1.98;1.40;;;23.40;56.30;;;;;;5012297;28;20675;-65
2022/06/29 09:32:09;;;;;;;2.03;1.25;;;23.50;56.40;;;;;;5012781;28;20239;-65
2022/06/29 09:34:36;;;;;;;1.42;1.30;;;23.50;56.40;;;;;;5012931;28;20267;-65
2022/06/29 09:37:03;;;;;;;2.55;1.40;;;23.50;56.40;;;;;;5012438;28;20180;-65
2022/06/29 09:39:39;;;;;;;3.13;1.60;;;23.50;56.40;;;;;;5013041;28;20203;-65
2022/06/29 09:42:06;;;;;;;2.00;1.20;;;23.60;56.30;;;;;;5012374;28;20183;-66
2022/06/29 09:44:32;;;;;;;1.77;1.20;;;23.60;56.30;;;;;;5012999;28;20211;-66
2022/06/29 09:46:58;;;;;;;3.33;1.45;;;23.60;56.20;;;;;;5012474;28;20200;-66
2022/06/29 09:49:28;;;;;;;1.52;1.42;;;23.60;56.30;;;;;;5012325;28;20173;-66
2022/06/29 09:51:55;;;;;;;1.15;1.08;;;23.60;56.90;;;;;;5012741;28;20216;-66
2022/06/29 09:54:22;;;;;;;3.15;1.40;;;23.60;56.20;;;;;;5012889;28;20181;-66
2022/06/29 09:56:48;;;;;;;3.35;1.42;;;23.70;56.30;;;;;;4994260;28;20180;-66
2022/06/29 09:59:19;;;;;;;3.20;1.40;;;23.70;56.30;;;;;;4995434;28;20173;-67
2022/06/29 10:04:28;;;;;;;2.88;1.58;;;23.70;56.20;;;;;;4997057;28;20776;-66
2022/06/29 10:06:54;;;;;;;2.38;1.50;;;23.70;56.20;;;;;;4995063;28;20173;-65
2022/06/29 10:09:20;;;;;;;2.08;1.30;;;23.70;56.20;;;;;;4995264;28;20176;-66
2022/06/29 10:15:14;;;;;;;2.15;1.38;;;23.70;56.20;;;;;;5012707;28;20709;-65
2022/06/29 10:17:46;;;;;;;2.35;1.30;;;23.80;56.20;;;;;;4994330;28;20212;-65
2022/06/29 10:20:35;;;;;;;1.77;1.48;;;23.80;56.20;;;;;;4995678;28;20264;-65
2022/06/29 10:23:01;;;;;;;2.67;1.30;;;23.90;56.10;;;;;;5012444;28;20176;-65
2022/06/29 10:25:29;;;;;;;2.03;1.40;;;23.80;56.20;;;;;;5012278;28;20183;-65
2022/06/29 10:28:11;;;;;;;1.95;1.55;;;23.80;56.20;;;;;;5015948;28;20169;-64
2022/06/29 10:30:37;;;;;;;3.65;1.77;;;23.80;56.10;;;;;;5016005;28;20572;-65
2022/06/29 10:33:37;;;;;;;2.40;1.35;;;23.80;56.10;;;;;;5015516;28;20180;-64
2022/06/29 10:36:05;;;;;;;2.28;1.10;;;23.90;56.10;;;;;;5016057;28;20183;-65
2022/06/29 10:38:33;;;;;;;4.85;1.55;;;23.90;56.10;;;;;;5015386;28;20646;-66
2022/06/29 10:41:09;;;;;;;2.63;1.83;;;23.90;56.10;;;;;;5015515;28;20207;-68
2022/06/29 10:43:37;;;;;;;2.70;1.50;;;23.90;56.00;;;;;;5016194;28;20179;-69
2022/06/29 10:46:03;;;;;;;3.30;1.50;;;23.90;56.00;;;;;;5014912;28;20546;-68
2022/06/29 10:48:31;;;;;;;3.88;1.60;;;23.90;56.00;;;;;;5015811;28;20181;-68
2022/06/29 10:50:56;;;;;;;4.85;1.30;;;23.80;55.80;;;;;;5015429;28;20223;-69
2022/06/29 10:53:22;;;;;;;2.55;1.38;;;23.90;55.90;;;;;;5015107;28;20658;-68
2022/06/29 10:55:52;;;;;;;6.10;1.92;;;23.90;55.90;;;;;;5015310;28;20178;-68
2022/06/29 10:58:18;;;;;;;8.95;1.55;;;23.80;55.80;;;;;;5015608;28;20683;-68
2022/06/29 11:00:45;;;;;;;3.63;1.55;;;23.90;55.90;;;;;;5014666;28;20255;-67
2022/06/29 11:03:11;;;;;;;3.08;1.63;;;23.90;55.90;;;;;;5015381;28;20233;-67
2022/06/29 11:05:37;;;;;;;2.22;1.50;;;23.90;55.70;;;;;;5015296;28;20645;-67
2022/06/29 11:13:31;;;;;;;4.72;1.60;;;24.10;55.50;;;;;;5014763;28;20171;-68
2022/06/29 11:15:58;;;;;;;1.90;1.45;;;24.00;55.50;;;;;;5014994;28;20549;-68
2022/06/29 11:18:28;;;;;;;4.90;1.48;;;24.00;55.40;;;;;;5015288;28;20168;-71
2022/06/29 11:20:54;;;;;;;1.52;1.42;;;24.10;55.40;;;;;;5014412;28;20181;-69
2022/06/29 11:23:29;;;;;;;3.13;1.33;;;24.10;55.40;;;;;;5015136;28;20176;-68
2022/06/29 11:25:54;;;;;;;3.88;1.67;;;24.00;55.30;;;;;;5014793;28;20184;-68
2022/06/29 11:28:21;;;;;;;3.85;1.60;;;24.10;55.20;;;;;;5013128;28;20650;-67
2022/06/29 11:31:02;;;;;;;1.52;1.27;;;24.10;55.20;;;;;;5013964;28;20675;-67
2022/06/29 11:33:29;;;;;;;1.65;1.25;;;24.10;55.20;;;;;;5015121;28;20184;-67
2022/06/29 11:35:55;;;;;;;1.40;1.30;;;24.10;55.20;;;;;;5014021;28;20216;-67
2022/06/29 11:38:24;;;;;;;2.60;1.10;;;24.10;55.10;;;;;;5014241;28;20176;-68
2022/06/29 11:40:53;;;;;;;2.60;1.40;;;24.10;55.00;;;;;;4997589;28;20646;-68
2022/06/29 11:43:19;;;;;;;3.47;1.40;;;24.10;55.00;;;;;;4997247;28;20188;-68
2022/06/29 11:45:49;;;;;;;3.75;1.55;;;24.10;55.60;;;;;;5014444;28;20196;-68
2022/06/29 11:48:18;;;;;;;1.23;1.08;;;24.20;55.00;;;;;;5014770;28;20231;-68
2022/06/29 11:50:51;;;;;;;2.92;1.33;;;24.10;54.90;;;;;;5013830;28;20220;-68
2022/06/29 11:53:36;;;;;;;1.65;1.35;;;24.10;54.80;;;;;;5014755;28;20180;-68
2022/06/29 11:56:05;;;;;;;1.35;1.20;;;24.10;54.80;;;;;;5013688;28;20298;-69
2022/06/29 11:58:32;;;;;;;1.90;0.93;;;24.10;54.70;;;;;;5014666;28;20180;-68
2022/06/29 12:00:57;;;;;;;2.70;1.35;;;24.20;54.80;;;;;;5014468;28;20180;-68
2022/06/29 12:03:23;;;;;;;2.55;1.40;;;24.20;54.70;;;;;;5013566;28;20579;-67
2022/06/29 12:05:58;;;;;;;2.08;1.40;;;24.20;54.60;;;;;;5014086;28;20248;-67
2022/06/29 12:08:24;;;;;;;2.00;1.20;;;24.20;54.50;;;;;;4997479;28;20188;-67
2022/06/29 12:10:50;;;;;;;1.30;1.20;;;24.30;54.50;;;;;;5013241;28;20223;-67
2022/06/29 12:13:16;;;;;;;2.28;1.35;;;24.30;54.40;;;;;;5014195;28;20631;-68
2022/06/29 12:15:41;;;;;;;1.45;1.35;;;24.30;54.30;;;;;;5013934;28;20215;-67
2022/06/29 12:18:07;;;;;;;1.60;1.05;;;24.30;54.20;;;;;;5013414;28;20635;-68
2022/06/29 12:20:33;;;;;;;2.08;1.50;;;24.30;54.30;;;;;;5014001;28;20183;-69
2022/06/29 12:22:58;;;;;;;3.22;1.35;;;24.20;54.50;;;;;;5013763;28;20177;-69
2022/06/29 12:25:24;;;;;;;1.85;1.73;;;24.20;54.50;;;;;;5013239;28;20180;-68
2022/06/29 12:27:49;;;;;;;3.80;1.50;;;24.30;54.40;;;;;;5013853;28;20197;-68
2022/06/29 12:30:15;;;;;;;2.15;1.20;;;24.30;54.20;;;;;;5013974;28;20692;-68
2022/06/29 12:32:41;;;;;;;1.85;1.40;;;24.40;54.10;;;;;;5013138;28;20172;-67
2022/06/29 12:35:07;;;;;;;1.35;1.23;;;24.30;54.00;;;;;;5013762;28;20184;-67
2022/06/29 12:37:32;;;;;;;1.55;0.95;;;24.50;54.00;;;;;;5013781;28;20173;-67
2022/06/29 12:39:58;;;;;;;1.23;1.00;;;24.50;54.00;;;;;;5012710;28;20265;-68
2022/06/29 12:42:23;;;;;;;2.05;1.40;;;24.50;53.90;;;;;;5013871;28;20176;-68
2022/06/29 12:44:49;;;;;;;1.63;1.48;;;24.60;53.80;;;;;;5012830;28;20172;-68
2022/06/29 12:47:15;;;;;;;1.20;1.10;;;24.60;53.70;;;;;;5013773;28;20304;-67
2022/06/29 12:49:40;;;;;;;1.42;1.00;;;24.60;53.60;;;;;;5013361;28;20218;-67
2022/06/29 12:52:06;;;;;;;1.10;1.05;;;24.60;53.50;;;;;;5012741;28;20690;-68
2022/06/29 12:54:32;;;;;;;1.35;1.00;;;24.60;53.40;;;;;;5013447;28;20685;-67
2022/06/29 12:56:57;;;;;;;2.15;1.15;;;24.70;54.00;;;;;;5013319;28;20180;-67
2022/06/29 12:59:23;;;;;;;1.38;1.27;;;24.70;53.30;;;;;;5012954;28;20604;-67
2022/06/29 13:01:50;;;;;;;1.70;1.40;;;24.80;53.30;;;;;;5013161;28;20191;-65